createdAt,value
2018-07-17T00:00:51.470Z,7.87
2018-07-17T00:03:20.269Z,7.30
2018-07-17T00:05:49.071Z,7.57
2018-07-17T00:08:17.854Z,8.00
2018-07-17T00:10:46.722Z,7.67
2018-07-17T00:13:15.557Z,7.53
2018-07-17T00:15:43.892Z,8.00
2018-07-17T00:18:12.636Z,7.97
2018-07-17T00:20:41.372Z,7.70
2018-07-17T00:23:10.116Z,7.93
2018-07-17T00:25:38.861Z,7.53
2018-07-17T00:28:07.605Z,7.90
2018-07-17T00:30:36.362Z,7.43
2018-07-17T00:33:05.104Z,7.00
2018-07-17T00:35:33.935Z,7.07
2018-07-17T00:38:02.916Z,8.47
2018-07-17T00:40:31.691Z,7.57
2018-07-17T00:43:00.434Z,7.77
2018-07-17T00:45:29.253Z,7.37
2018-07-17T00:47:57.967Z,7.23
2018-07-17T00:50:26.696Z,7.77
2018-07-17T00:52:55.443Z,7.53
2018-07-17T00:55:24.184Z,7.67
2018-07-17T00:57:52.991Z,8.07
2018-07-17T01:00:25.935Z,7.77
2018-07-17T01:02:59.899Z,7.97
2018-07-17T01:05:33.731Z,7.60
2018-07-17T01:08:07.667Z,8.20
2018-07-17T01:10:41.507Z,7.30
2018-07-17T01:13:14.390Z,6.93
2018-07-17T01:15:43.146Z,7.73
2018-07-17T01:18:11.895Z,7.97
2018-07-17T01:20:40.627Z,7.07
2018-07-17T01:23:09.367Z,7.90
2018-07-17T01:25:38.089Z,7.33
2018-07-17T01:28:06.836Z,7.20
2018-07-17T01:30:35.557Z,8.53
2018-07-17T01:33:04.300Z,7.87
2018-07-17T01:35:32.651Z,7.63
2018-07-17T01:38:01.398Z,7.80
2018-07-17T01:40:30.126Z,7.53
2018-07-17T01:42:58.862Z,7.30
2018-07-17T01:45:27.589Z,7.77
2018-07-17T01:47:56.320Z,7.83
2018-07-17T01:50:25.036Z,7.20
2018-07-17T01:52:53.759Z,7.73
2018-07-17T01:55:22.499Z,7.67
2018-07-17T01:57:51.412Z,7.10
2018-07-17T02:00:20.186Z,6.83
2018-07-17T02:02:48.979Z,7.57
2018-07-17T02:05:17.735Z,7.23
2018-07-17T02:07:46.552Z,7.57
2018-07-17T02:10:15.311Z,7.43
2018-07-17T02:12:44.030Z,7.83
2018-07-17T02:15:12.775Z,7.30
2018-07-17T02:17:41.511Z,7.13
2018-07-17T02:20:10.475Z,7.33
2018-07-17T02:22:39.215Z,6.83
2018-07-17T02:25:07.947Z,7.33
2018-07-17T02:27:36.671Z,7.50
2018-07-17T02:30:06.099Z,7.10
2018-07-17T02:32:34.431Z,7.50
2018-07-17T02:35:03.193Z,7.80
2018-07-17T02:37:31.935Z,6.97
2018-07-17T02:40:00.688Z,7.53
2018-07-17T02:42:29.539Z,7.60
2018-07-17T02:44:58.188Z,7.20
2018-07-17T02:47:26.947Z,7.20
2018-07-17T02:49:55.617Z,7.27
2018-07-17T02:52:24.348Z,6.50
2018-07-17T02:54:53.104Z,7.40
2018-07-17T02:57:21.827Z,7.47
2018-07-17T02:59:50.643Z,7.57
2018-07-17T03:02:19.371Z,7.60
2018-07-17T03:04:48.126Z,6.60
2018-07-17T03:07:16.830Z,7.40
2018-07-17T03:09:45.576Z,7.47
2018-07-17T03:12:14.303Z,6.67
2018-07-17T03:14:43.063Z,8.17
2018-07-17T03:17:11.820Z,6.97
2018-07-17T03:19:40.639Z,7.33
2018-07-17T03:22:09.376Z,6.83
2018-07-17T03:24:38.113Z,7.17
2018-07-17T03:27:07.216Z,7.10
2018-07-17T03:29:36.047Z,7.23
2018-07-17T03:32:04.820Z,7.43
2018-07-17T03:34:33.539Z,7.10
2018-07-17T03:37:02.294Z,7.20
2018-07-17T03:39:30.998Z,7.97
2018-07-17T03:41:59.684Z,7.47
2018-07-17T03:44:28.415Z,7.07
2018-07-17T03:46:57.155Z,7.23
2018-07-17T03:49:25.831Z,7.33
2018-07-17T03:51:54.575Z,7.63
2018-07-17T03:54:23.320Z,8.03
2018-07-17T03:56:52.116Z,6.87
2018-07-17T03:59:20.887Z,7.93
2018-07-17T04:01:49.635Z,7.30
2018-07-17T04:04:18.486Z,7.83
2018-07-17T04:06:46.834Z,7.00
2018-07-17T04:09:15.568Z,7.83
2018-07-17T04:11:44.292Z,7.60
2018-07-17T04:14:13.047Z,8.03
2018-07-17T04:16:53.380Z,7.35
2018-07-17T04:19:22.431Z,7.70
2018-07-17T04:21:51.760Z,7.50
2018-07-17T04:24:21.743Z,7.53
2018-07-17T04:26:50.507Z,7.85
2018-07-17T04:29:19.255Z,7.53
2018-07-17T04:31:48.003Z,7.92
2018-07-17T04:34:16.783Z,7.35
2018-07-17T04:36:45.532Z,7.37
2018-07-17T04:39:14.601Z,8.93
2018-07-17T04:41:43.403Z,7.73
2018-07-17T04:44:12.237Z,8.00
2018-07-17T04:46:40.993Z,7.70
2018-07-17T04:49:09.775Z,8.18
2018-07-17T04:51:38.515Z,7.95
2018-07-17T04:54:07.291Z,7.72
2018-07-17T04:56:36.053Z,7.80
2018-07-17T04:59:04.808Z,8.70
2018-07-17T05:01:33.262Z,8.40
2018-07-17T05:04:01.965Z,8.18
2018-07-17T05:06:30.691Z,8.70
2018-07-17T05:08:59.454Z,9.10
2018-07-17T05:11:28.186Z,8.83
2018-07-17T05:13:56.968Z,8.33
2018-07-17T05:16:25.725Z,8.38
2018-07-17T05:18:54.448Z,8.80
2018-07-17T05:21:23.282Z,8.48
2018-07-17T05:23:52.072Z,8.43
2018-07-17T05:26:20.882Z,8.63
2018-07-17T05:28:49.593Z,7.30
2018-07-17T05:31:18.388Z,7.62
2018-07-17T05:33:47.140Z,8.28
2018-07-17T05:36:15.879Z,8.73
2018-07-17T05:38:44.660Z,8.30
2018-07-17T05:41:13.415Z,8.68
2018-07-17T05:43:42.148Z,8.93
2018-07-17T05:46:10.915Z,9.15
2018-07-17T05:48:39.679Z,9.33
2018-07-17T05:51:08.492Z,9.20
2018-07-17T05:53:37.280Z,8.65
2018-07-17T05:56:06.020Z,7.95
2018-07-17T05:58:34.782Z,8.55
2018-07-17T06:01:03.555Z,9.18
2018-07-17T06:03:32.324Z,8.50
2018-07-17T06:06:01.114Z,9.13
2018-07-17T06:08:29.844Z,8.48
2018-07-17T06:10:58.615Z,9.18
2018-07-17T06:13:27.359Z,9.10
2018-07-17T06:15:56.119Z,9.08
2018-07-17T06:18:24.897Z,8.43
2018-07-17T06:20:53.628Z,8.85
2018-07-17T06:23:22.439Z,9.30
2018-07-17T06:25:51.223Z,8.48
2018-07-17T06:28:20.252Z,8.43
2018-07-17T06:30:48.985Z,8.88
2018-07-17T06:33:17.739Z,8.98
2018-07-17T06:35:46.499Z,9.20
2018-07-17T06:38:15.259Z,8.73
2018-07-17T06:40:44.293Z,8.78
2018-07-17T06:43:13.083Z,9.28
2018-07-17T06:45:41.863Z,9.05
2018-07-17T06:48:10.607Z,8.35
2018-07-17T06:50:39.422Z,7.97
2018-07-17T06:53:08.607Z,9.65
2018-07-17T06:55:37.351Z,8.78
2018-07-17T06:58:06.439Z,8.78
2018-07-17T07:00:35.364Z,8.33
2018-07-17T07:03:04.103Z,8.50
2018-07-17T07:05:32.781Z,9.28
2018-07-17T07:08:01.803Z,8.63
2018-07-17T07:10:30.567Z,9.25
2018-07-17T07:12:59.291Z,9.10
2018-07-17T07:15:28.044Z,8.00
2018-07-17T07:17:56.781Z,8.85
2018-07-17T07:20:25.527Z,9.48
2018-07-17T07:22:54.227Z,9.05
2018-07-17T07:25:23.013Z,8.20
2018-07-17T07:27:51.812Z,8.70
2018-07-17T07:30:20.553Z,8.60
2018-07-17T07:32:49.283Z,7.83
2018-07-17T07:35:18.032Z,8.75
2018-07-17T07:37:46.771Z,8.60
2018-07-17T07:40:15.859Z,7.53
2018-07-17T07:42:44.599Z,8.55
2018-07-17T07:45:13.371Z,8.23
2018-07-17T07:47:42.196Z,9.68
2018-07-17T07:50:10.967Z,8.60
2018-07-17T07:52:39.675Z,8.78
2018-07-17T07:55:08.516Z,7.80
2018-07-17T07:57:37.279Z,8.85
2018-07-17T08:00:06.367Z,8.73
2018-07-17T08:02:35.143Z,8.10
2018-07-17T08:05:03.912Z,12.35
2018-07-17T08:07:32.940Z,9.35
2018-07-17T08:10:01.676Z,7.78
2018-07-17T08:12:30.780Z,7.95
2018-07-17T08:14:59.545Z,8.23
2018-07-17T08:17:28.280Z,8.28
2018-07-17T08:19:57.084Z,9.68
2018-07-17T08:22:25.834Z,8.73
2018-07-17T08:24:54.610Z,8.23
2018-07-17T08:27:23.336Z,8.70
2018-07-17T08:29:52.230Z,8.68
2018-07-17T08:32:20.963Z,8.13
2018-07-17T08:34:49.711Z,7.95
2018-07-17T08:37:18.457Z,7.78
2018-07-17T08:39:47.224Z,7.95
2018-07-17T08:42:15.955Z,7.90
2018-07-17T08:44:44.666Z,7.65
2018-07-17T08:47:13.471Z,7.95
2018-07-17T08:49:42.586Z,7.62
2018-07-17T08:52:11.311Z,7.62
2018-07-17T08:54:40.267Z,8.85
2018-07-17T08:57:08.920Z,8.68
2018-07-17T08:59:37.646Z,7.60
2018-07-17T09:02:06.900Z,7.72
2018-07-17T09:04:35.639Z,7.58
2018-07-17T09:07:04.479Z,7.60
2018-07-17T09:09:33.215Z,7.30
2018-07-17T09:12:01.983Z,7.50
2018-07-17T09:14:31.032Z,6.97
2018-07-17T09:16:59.829Z,7.28
2018-07-17T09:19:28.580Z,8.30
2018-07-17T09:21:57.352Z,8.18
2018-07-17T09:24:29.127Z,7.15
2018-07-17T09:26:57.879Z,7.05
2018-07-17T09:29:26.970Z,6.92
2018-07-17T09:31:55.799Z,7.65
2018-07-17T09:34:24.672Z,7.15
2018-07-17T09:36:53.433Z,6.83
2018-07-17T09:39:22.126Z,7.03
2018-07-17T09:41:50.927Z,7.05
2018-07-17T09:44:19.966Z,7.37
2018-07-17T09:46:48.691Z,7.47
2018-07-17T09:49:17.463Z,7.92
2018-07-17T09:51:46.539Z,7.67
2018-07-17T09:54:15.328Z,8.95
2018-07-17T09:56:44.109Z,7.25
2018-07-17T09:59:12.860Z,7.35
2018-07-17T10:01:46.912Z,7.08
2018-07-17T10:04:15.702Z,6.55
2018-07-17T10:06:44.543Z,6.80
2018-07-17T10:09:13.355Z,7.55
2018-07-17T10:11:42.167Z,6.55
2018-07-17T10:14:10.971Z,6.58
2018-07-17T10:16:39.820Z,6.00
2018-07-17T10:19:08.674Z,6.25
2018-07-17T10:21:37.478Z,6.30
2018-07-17T10:24:06.290Z,6.40
2018-07-17T10:26:35.144Z,7.42
2018-07-17T10:29:03.952Z,5.90
2018-07-17T10:31:32.769Z,5.92
2018-07-17T10:34:01.592Z,6.95
2018-07-17T10:36:30.450Z,5.80
2018-07-17T10:38:59.249Z,5.87
2018-07-17T10:41:28.045Z,5.75
2018-07-17T10:43:56.889Z,5.30
2018-07-17T10:46:26.182Z,5.45
2018-07-17T10:48:55.000Z,4.80
2018-07-17T10:51:23.811Z,4.70
2018-07-17T10:53:52.637Z,4.75
2018-07-17T10:56:21.509Z,4.80
2018-07-17T10:58:50.331Z,4.53
2018-07-17T11:01:19.175Z,4.42
2018-07-17T11:03:48.027Z,4.50
2018-07-17T11:06:16.854Z,5.22
2018-07-17T11:08:45.667Z,4.92
2018-07-17T11:11:14.526Z,5.37
2018-07-17T11:13:43.318Z,5.58
2018-07-17T11:16:12.133Z,4.60
2018-07-17T11:18:40.912Z,4.95
2018-07-17T11:21:09.765Z,4.85
2018-07-17T11:23:38.594Z,4.42
2018-07-17T11:26:07.453Z,5.50
2018-07-17T11:28:36.275Z,4.70
2018-07-17T11:31:05.074Z,4.80
2018-07-17T11:33:33.874Z,5.20
2018-07-17T11:36:02.703Z,5.47
2018-07-17T11:38:31.534Z,5.15
2018-07-17T11:41:00.334Z,4.87
2018-07-17T11:43:29.146Z,5.87
2018-07-17T11:45:57.966Z,5.42
2018-07-17T11:48:26.790Z,5.85
2018-07-17T11:50:55.622Z,6.28
2018-07-17T11:53:24.493Z,7.05
2018-07-17T11:55:53.335Z,5.83
2018-07-17T11:58:22.130Z,6.05
2018-07-17T12:00:51.250Z,6.12
2018-07-17T12:03:20.148Z,6.30
2018-07-17T12:05:49.026Z,6.50
2018-07-17T12:08:17.816Z,6.58
2018-07-17T12:10:46.610Z,6.53
2018-07-17T12:13:15.410Z,6.25
2018-07-17T12:15:44.211Z,6.75
2018-07-17T12:18:12.990Z,6.05
2018-07-17T12:20:41.780Z,7.17
2018-07-17T12:23:10.607Z,6.15
2018-07-17T12:25:39.405Z,6.75
2018-07-17T12:28:08.650Z,6.15
2018-07-17T12:30:37.375Z,4.78
2018-07-17T12:33:06.170Z,5.17
2018-07-17T12:35:34.938Z,5.97
2018-07-17T12:38:03.791Z,5.05
2018-07-17T12:40:32.594Z,5.60
2018-07-17T12:43:01.390Z,5.08
2018-07-17T12:45:30.176Z,6.05
2018-07-17T12:47:59.101Z,5.35
2018-07-17T12:50:27.862Z,5.30
2018-07-17T12:52:56.600Z,4.75
2018-07-17T12:55:25.545Z,5.15
2018-07-17T12:57:54.316Z,5.65
2018-07-17T13:00:23.079Z,5.87
2018-07-17T13:02:51.890Z,6.15
2018-07-17T13:05:20.587Z,5.33
2018-07-17T13:07:49.339Z,5.90
2018-07-17T13:10:18.088Z,5.67
2018-07-17T13:12:46.820Z,6.62
2018-07-17T13:15:15.627Z,5.87
2018-07-17T13:17:44.387Z,7.37
2018-07-17T13:20:13.127Z,6.75
2018-07-17T13:22:41.916Z,6.20
2018-07-17T13:25:10.741Z,7.55
2018-07-17T13:27:39.454Z,6.83
2018-07-17T13:30:08.588Z,7.45
2018-07-17T13:32:37.419Z,7.20
2018-07-17T13:35:06.201Z,7.45
2018-07-17T13:37:35.261Z,7.47
2018-07-17T13:40:04.150Z,7.90
2018-07-17T13:42:32.912Z,7.87
2018-07-17T13:45:01.673Z,8.43
2018-07-17T13:47:30.474Z,8.28
2018-07-17T13:49:59.298Z,7.50
2018-07-17T13:52:28.057Z,8.75
2018-07-17T13:54:56.863Z,7.87
2018-07-17T13:57:25.717Z,7.92
2018-07-17T13:59:54.509Z,7.60
2018-07-17T14:02:23.193Z,7.67
2018-07-17T14:04:51.932Z,7.62
2018-07-17T14:07:20.679Z,7.90
2018-07-17T14:09:49.401Z,7.90
2018-07-17T14:12:18.188Z,8.38
2018-07-17T14:14:46.891Z,7.62
2018-07-17T14:17:15.644Z,7.10
2018-07-17T14:19:44.431Z,6.92
2018-07-17T14:22:13.191Z,7.25
2018-07-17T14:24:41.939Z,7.67
2018-07-17T14:27:10.672Z,8.68
2018-07-17T14:29:39.423Z,7.53
2018-07-17T14:32:08.181Z,6.90
2018-07-17T14:34:37.775Z,6.47
2018-07-17T14:37:06.596Z,6.45
2018-07-17T14:39:35.353Z,7.03
2018-07-17T14:42:04.355Z,8.23
2018-07-17T14:44:33.102Z,7.20
2018-07-17T14:47:01.833Z,6.47
2018-07-17T14:49:30.621Z,7.35
2018-07-17T14:51:59.432Z,6.65
2018-07-17T14:54:28.253Z,6.50
2018-07-17T14:56:56.577Z,6.80
2018-07-17T14:59:25.589Z,6.90
2018-07-17T15:01:54.291Z,6.78
2018-07-17T15:04:23.075Z,6.70
2018-07-17T15:06:52.152Z,7.15
2018-07-17T15:09:20.885Z,6.22
2018-07-17T15:11:49.628Z,6.45
2018-07-17T15:14:18.364Z,6.10
2018-07-17T15:16:46.750Z,6.75
2018-07-17T15:19:15.472Z,7.12
2018-07-17T15:21:44.252Z,6.55
2018-07-17T15:24:12.995Z,6.45
2018-07-17T15:26:41.719Z,6.30
2018-07-17T15:29:10.440Z,7.08
2018-07-17T15:31:39.283Z,6.55
2018-07-17T15:34:08.023Z,6.40
2018-07-17T15:36:37.239Z,5.72
2018-07-17T15:39:08.415Z,6.08
2018-07-17T15:41:37.368Z,6.22
2018-07-17T15:44:06.117Z,6.05
2018-07-17T15:46:35.059Z,6.92
2018-07-17T15:49:03.824Z,6.78
2018-07-17T15:51:32.591Z,6.53
2018-07-17T15:54:01.384Z,6.70
2018-07-17T15:56:30.173Z,7.65
2018-07-17T15:58:58.943Z,7.12
2018-07-17T16:01:27.700Z,7.15
2018-07-17T16:03:56.488Z,7.17
2018-07-17T16:06:25.249Z,7.53
2018-07-17T16:08:54.169Z,7.30
2018-07-17T16:11:23.219Z,7.20
2018-07-17T16:13:52.122Z,7.03
2018-07-17T16:16:20.770Z,7.47
2018-07-17T16:18:49.548Z,7.50
2018-07-17T16:21:18.363Z,7.78
2018-07-17T16:23:47.070Z,7.90
2018-07-17T16:26:15.843Z,7.92
2018-07-17T16:28:44.872Z,8.30
2018-07-17T16:31:13.650Z,7.28
2018-07-17T16:33:42.395Z,6.83
2018-07-17T16:36:11.389Z,7.75
2018-07-17T16:38:40.202Z,6.55
2018-07-17T16:41:09.012Z,6.60
2018-07-17T16:43:37.739Z,6.85
2018-07-17T16:46:06.510Z,6.85
2018-07-17T16:48:35.307Z,6.00
2018-07-17T16:51:04.126Z,7.12
2018-07-17T16:53:32.903Z,5.90
2018-07-17T16:56:01.665Z,7.03
2018-07-17T16:58:30.403Z,6.90
2018-07-17T17:00:59.147Z,6.28
2018-07-17T17:03:27.913Z,7.17
2018-07-17T17:05:56.652Z,7.50
2018-07-17T17:08:25.640Z,7.45
2018-07-17T17:10:54.363Z,6.92
2018-07-17T17:13:23.124Z,7.58
2018-07-17T17:15:51.868Z,6.92
2018-07-17T17:18:20.647Z,7.97
2018-07-17T17:20:49.412Z,6.83
2018-07-17T17:23:18.149Z,7.45
2018-07-17T17:25:46.894Z,7.50
2018-07-17T17:28:15.663Z,7.83
2018-07-17T17:30:44.404Z,8.03
2018-07-17T17:33:13.143Z,7.22
2018-07-17T17:35:41.900Z,7.35
2018-07-17T17:38:10.952Z,7.67
2018-07-17T17:40:39.724Z,8.00
2018-07-17T17:43:08.479Z,8.30
2018-07-17T17:45:37.240Z,8.48
2018-07-17T17:48:06.703Z,7.67
2018-07-17T17:50:35.439Z,7.87
2018-07-17T17:53:04.195Z,8.00
2018-07-17T17:55:32.971Z,8.40
2018-07-17T17:58:01.734Z,7.87
2018-07-17T18:00:30.499Z,8.10
2018-07-17T18:02:59.219Z,8.10
2018-07-17T18:05:28.249Z,8.05
2018-07-17T18:07:57.058Z,8.50
2018-07-17T18:10:25.787Z,7.72
2018-07-17T18:12:54.519Z,7.80
2018-07-17T18:15:23.258Z,7.53
2018-07-17T18:17:52.331Z,8.63
2018-07-17T18:20:21.140Z,8.93
2018-07-17T18:22:49.905Z,8.65
2018-07-17T18:25:18.900Z,8.50
2018-07-17T18:27:47.648Z,8.70
2018-07-17T18:30:17.131Z,7.95
2018-07-17T18:32:46.144Z,8.00
2018-07-17T18:35:14.865Z,8.78
2018-07-17T18:37:43.727Z,8.88
2018-07-17T18:40:12.839Z,8.48
2018-07-17T18:42:41.588Z,9.60
2018-07-17T18:45:10.330Z,9.20
2018-07-17T18:47:39.456Z,8.83
2018-07-17T18:50:12.872Z,9.15
2018-07-17T18:52:37.027Z,9.35
2018-07-17T18:55:05.800Z,8.65
2018-07-17T18:57:34.899Z,8.20
2018-07-17T19:00:03.792Z,8.55
2018-07-17T19:02:32.627Z,8.68
2018-07-17T19:05:01.743Z,8.43
2018-07-17T19:07:30.514Z,9.90
2018-07-17T19:10:00.064Z,9.45
2018-07-17T19:12:28.871Z,8.38
2018-07-17T19:14:57.595Z,9.45
2018-07-17T19:17:26.457Z,8.50
2018-07-17T19:19:55.155Z,9.00
2018-07-17T19:22:24.280Z,8.65
2018-07-17T19:24:53.292Z,9.45
2018-07-17T19:27:22.027Z,9.25
2018-07-17T19:29:50.371Z,8.83
2018-07-17T19:32:19.118Z,8.78
2018-07-17T19:34:47.863Z,8.93
2018-07-17T19:37:16.605Z,9.45
2018-07-17T19:39:45.704Z,9.15
2018-07-17T19:42:14.780Z,8.75
2018-07-17T19:44:43.806Z,8.58
2018-07-17T19:47:12.524Z,9.30
2018-07-17T19:49:41.312Z,8.85
2018-07-17T19:52:10.360Z,9.38
2018-07-17T19:54:39.110Z,9.08
2018-07-17T19:57:07.887Z,8.85
2018-07-17T19:59:36.975Z,8.63
2018-07-17T20:02:05.748Z,8.35
2018-07-17T20:04:34.461Z,9.20
2018-07-17T20:07:03.339Z,9.00
2018-07-17T20:09:32.863Z,9.18
2018-07-17T20:12:04.038Z,8.73
2018-07-17T20:14:33.572Z,8.63
2018-07-17T20:17:03.210Z,9.13
2018-07-17T20:19:32.869Z,8.38
2018-07-17T20:22:03.270Z,8.95
2018-07-17T20:24:33.308Z,8.75
2018-07-17T20:27:03.352Z,8.73
2018-07-17T20:29:34.406Z,7.92
2018-07-17T20:32:04.432Z,7.95
2018-07-17T20:34:34.324Z,8.63
2018-07-17T20:37:04.799Z,9.25
2018-07-17T20:39:34.204Z,8.10
2018-07-17T20:42:04.228Z,8.50
2018-07-17T20:44:34.225Z,8.75
2018-07-17T20:47:04.011Z,8.38
2018-07-17T20:49:37.088Z,8.70
2018-07-17T20:52:06.763Z,7.78
2018-07-17T20:54:36.039Z,8.23
2018-07-17T20:57:05.775Z,8.43
2018-07-17T20:59:36.448Z,8.90
2018-07-17T21:02:05.732Z,8.38
2018-07-17T21:04:36.545Z,8.60
2018-07-17T21:07:07.092Z,7.03
2018-07-17T21:09:37.224Z,7.73
2018-07-17T21:12:10.496Z,8.73
2018-07-17T21:14:40.915Z,8.60
2018-07-17T21:17:11.169Z,8.63
2018-07-17T21:19:40.776Z,8.80
2018-07-17T21:22:10.870Z,7.78
2018-07-17T21:24:40.766Z,8.18
2018-07-17T21:27:10.005Z,7.75
2018-07-17T21:29:40.310Z,9.38
2018-07-17T21:32:09.545Z,8.67
2018-07-17T21:34:38.725Z,8.10
2018-07-17T21:37:08.055Z,9.10
2018-07-17T21:39:36.702Z,8.07
2018-07-17T21:42:05.827Z,8.73
2018-07-17T21:44:34.469Z,9.78
2018-07-17T21:47:04.103Z,8.57
2018-07-17T21:49:32.946Z,9.25
2018-07-17T21:52:02.187Z,8.53
2018-07-17T21:54:31.175Z,8.50
2018-07-17T21:57:00.194Z,9.25
2018-07-17T21:59:29.153Z,8.67
2018-07-17T22:01:57.877Z,9.03
2018-07-17T22:04:26.622Z,8.63
2018-07-17T22:06:55.310Z,9.13
2018-07-17T22:09:24.328Z,9.40
2018-07-17T22:11:54.159Z,9.40
2018-07-17T22:14:22.891Z,9.00
2018-07-17T22:16:51.586Z,9.27
2018-07-17T22:19:20.514Z,9.03
2018-07-17T22:21:49.275Z,8.90
2018-07-17T22:24:18.590Z,8.23
2018-07-17T22:26:47.242Z,10.03
2018-07-17T22:29:15.947Z,8.97
2018-07-17T22:31:44.950Z,9.48
2018-07-17T22:34:14.222Z,8.83
2018-07-17T22:36:43.255Z,9.37
2018-07-17T22:39:11.996Z,9.40
2018-07-17T22:41:40.682Z,8.30
2018-07-17T22:44:09.702Z,9.53
2018-07-17T22:46:38.726Z,9.20
2018-07-17T22:49:07.690Z,9.53
2018-07-17T22:51:36.377Z,9.13
2018-07-17T22:54:05.074Z,9.47
2018-07-17T22:56:33.953Z,10.23
2018-07-17T22:59:02.742Z,9.43
2018-07-17T23:01:31.614Z,9.50
2018-07-17T23:04:00.430Z,9.70
2018-07-17T23:06:29.194Z,9.40
2018-07-17T23:08:58.534Z,9.37
2018-07-17T23:11:27.373Z,8.23
2018-07-17T23:13:56.154Z,9.90
2018-07-17T23:16:24.950Z,9.03
2018-07-17T23:18:54.010Z,9.43
2018-07-17T23:21:22.754Z,9.77
2018-07-17T23:23:51.575Z,9.33
2018-07-17T23:26:20.352Z,8.03
2018-07-17T23:28:49.129Z,9.70
2018-07-17T23:31:18.413Z,9.00
2018-07-17T23:33:47.202Z,9.53
2018-07-17T23:36:15.991Z,8.53
2018-07-17T23:38:44.802Z,8.63
2018-07-17T23:41:13.606Z,9.00
2018-07-17T23:43:42.398Z,9.33
2018-07-17T23:46:11.186Z,9.37
2018-07-17T23:48:39.999Z,9.77
2018-07-17T23:51:08.799Z,9.00
2018-07-17T23:53:37.594Z,9.83
2018-07-17T23:56:06.394Z,9.50
2018-07-17T23:58:35.191Z,9.73
